Flight Track Log - Related Links

Times and Time Zones

All times are in EDT time to prevent confusion due to time zone crossing. See the CCA4494 flight status page for this flight to view local times or setup timezone preferences in your user account.

Time Position Orientation Groundspeed Altitude Reporting Facility
EDT Latitude Longitude Course Direction KTS MPH feet Rate Location/Type
Sun 04:54:00 AM 32.6865 103.7032 174° South  Level Estimated
Sun 04:55:00 AM 32.6297 103.7099 174° South  Level Estimated
Sun 04:56:00 AM 32.5729 103.7167 174° South  Level Estimated
Sun 04:57:00 AM 32.5160 103.7234 174° South  Level Estimated
Sun 04:58:00 AM 32.4592 103.7301 174° South  Level Estimated
Sun 04:59:00 AM 32.4024 103.7367 174° South  Level Estimated
Sun 04:59:54 AM 32.1140 103.6820 174° South 449 517 24,600  Level FlightAware ADS-B
Sun 05:00:00 AM 32.3455 103.7434 174° South  Level Estimated
Sun 05:00:33 AM 32.0410 103.6830 179° South 455 524 24,600  Level FlightAware ADS-B
Sun 05:01:08 AM 31.9580 103.6820 181° South 457 526 24,600  Level FlightAware ADS-B
Sun 05:01:43 AM 31.8840 103.6820 180° South 459 528 24,600  Level FlightAware ADS-B
Sun 05:02:13 AM 31.8210 103.6820 180° South 460 529 24,600  Level FlightAware ADS-B
Sun 05:02:52 AM 31.7370 103.6830 179° South 459 528 24,600  Level FlightAware ADS-B
Sun 05:03:28 AM 31.6590 103.6830 180° South 460 529 24,600  Level FlightAware ADS-B
Sun 05:04:04 AM 31.5830 103.6830 180° South 460 529 24,600  Level FlightAware ADS-B
Sun 05:04:39 AM 31.5090 103.6830 180° South 460 529 24,600  Level FlightAware ADS-B
Sun 05:05:11 AM 31.4410 103.6840 179° South 461 531 24,600 -86 Level FlightAware ADS-B
Sun 05:05:49 AM 31.3590 103.6880 178° South 458 527 24,500 -822 Descending FlightAware ADS-B
Sun 05:06:24 AM 31.2880 103.7050 168° South 446 513 23,600 -1,829 Descending FlightAware ADS-B
Sun 05:07:11 AM 31.1930 103.7040 181° South 427 491 22,000 -2,250 Descending FlightAware ADS-B
Sun 05:07:44 AM 31.1280 103.7020 182° South 417 480 20,600 -2,522 Descending FlightAware ADS-B
Sun 05:08:20 AM 31.0580 103.6990 182° South 410 472 19,100 -1,562 Descending FlightAware ADS-B
Sun 05:08:57 AM 30.9900 103.6970 181° South 409 471 18,700 -870 Descending FlightAware ADS-B
Sun 05:09:29 AM 30.9300 103.6950 182° South 401 461 18,100 -1,800 Descending FlightAware ADS-B
Sun 05:10:07 AM 30.8600 103.6930 181° South 392 451 16,600 -2,348 Descending FlightAware ADS-B
Sun 05:10:38 AM 30.8040 103.6910 182° South 365 420 15,400 -2,535 Descending FlightAware ADS-B
Sun 05:11:18 AM 30.7390 103.6890 182° South 350 403 13,600 -2,815 Descending FlightAware ADS-B
Sun 05:11:59 AM 30.6740 103.6870 182° South 340 391 11,600 -2,526 Descending FlightAware ADS-B
Sun 05:12:34 AM 30.6220 103.6990 169° South 315 362 10,400 -1,855 Descending FlightAware ADS-B
Sun 05:12:54 AM 30.5950 103.7120 157° South 301 346 9,900 -1,500 Descending FlightAware ADS-B
Sun 05:13:14 AM 30.5690 103.7240 158° South 299 344 9,400 -1,463 Descending FlightAware ADS-B
Sun 05:13:35 AM 30.5430 103.7360 158° South 294 338 8,900 -1,421 Descending FlightAware ADS-B
Sun 05:13:52 AM 30.5200 103.7460 159° South 292 336 8,500 -1,385 Descending FlightAware ADS-B
Sun 05:14:14 AM 30.4930 103.7590 157° South 289 333 8,000 -1,317 Descending FlightAware ADS-B
Sun 05:14:33 AM 30.4700 103.7690 159° South 284 327 7,600 -1,500 Descending FlightAware ADS-B
Sun 05:14:42 AM 30.4580 103.7720 168° South 281 323 7,300 -1,636 Descending FlightAware ADS-B
Sun 05:15:06 AM 30.4280 103.7630 195° South 282 325 6,700 -1,500 Descending FlightAware ADS-B
Sun 05:15:30 AM 30.3990 103.7490 203° Southwest 278 320 6,100 -1,500 Descending FlightAware ADS-B
Sun 05:15:42 AM 30.3860 103.7430 202° Southwest 277 319 5,800 -1,500 Descending FlightAware ADS-B
Sun 05:16:06 AM 30.3550 103.7300 200° South 275 316 5,200 -764 Descending FlightAware ADS-B
Sun 05:16:37 AM 30.3230 103.7440 159° South 247 284 5,100  Descending FlightAware ADS-B
Sun 05:16:46 AM 30.3170 103.7550 122° Southeast 236 272 5,200 240 Climbing FlightAware ADS-B
Sun 05:17:02 AM 30.3120 103.7720 109° East 225 259 5,200  Level FlightAware ADS-B
Sun 05:17:22 AM 30.3070 103.7950 104° East 209 241 5,200  Level FlightAware ADS-B
Sun 05:17:47 AM 30.3160 103.8200 67° East 207 238 5,200  Level FlightAware ADS-B
Sun 05:18:04 AM 30.3280 103.8350 47° Northeast 207 238 5,200  Level FlightAware ADS-B
Sun 05:18:23 AM 30.3400 103.8490 45° Northeast 206 237 5,200 -188 Level FlightAware ADS-B
Sun 05:18:36 AM 30.3510 103.8570 32° Northeast 207 238 5,100 -649 Descending FlightAware ADS-B
Sun 05:19:00 AM 30.3710 103.8680 25° Northeast 195 224 4,800 -800 Descending FlightAware ADS-B
Sun 05:19:21 AM 30.3880 103.8760 22° Northeast 192 221 4,500 -900 Descending FlightAware ADS-B
Sun 05:19:40 AM 30.4040 103.8830 21° North 189 217 4,200 -1,091 Descending FlightAware ADS-B
Sun 05:19:54 AM 30.4150 103.8880 21° North 187 215 3,900 -833 Descending FlightAware ADS-B
Sun 05:20:16 AM 30.4320 103.8960 22° Northeast 171 197 3,700 -682 Descending FlightAware ADS-B
Sun 05:20:38 AM 30.4470 103.9030 22° Northeast 153 176 3,400 -857 Descending FlightAware ADS-B
Sun 05:20:58 AM 30.4600 103.9090 22° Northeast 148 170 3,100 -706 Descending FlightAware ADS-B
Sun 05:21:12 AM 30.4690 103.9130 21° North 146 168 3,000 -600 Descending FlightAware ADS-B
Sun 05:21:28 AM 30.4790 103.9180 23° Northeast 146 168 2,800 -706 Descending FlightAware ADS-B
Sun 05:21:46 AM 30.4890 103.9230 23° Northeast 145 167 2,600 -714 Descending FlightAware ADS-B
Sun 05:22:10 AM 30.5050 103.9300 21° North 144 166 2,300 -735 Descending FlightAware ADS-B
Sun 05:22:35 AM 30.5200 103.9370 22° Northeast 143 165 2,000 -720 Descending FlightAware ADS-B
Sun 05:23:12 AM 30.5390 103.9460 22° Northeast 130 150 -3,243 Descending FlightAware ADS-B

Login

Don't have an account? Register now (free) for customized features, flight alerts, and more!